sensor_id;sensor_type;location;lat;lon;timestamp;P1;durP1;ratioP1;P2;durP2;ratioP2
8663;SDS011;4369;47.842;13.096;2024-03-23T00:54:30;3.77;;;3.47;;
8663;SDS011;4369;47.842;13.096;2024-03-23T00:56:56;3.77;;;3.40;;
8663;SDS011;4369;47.842;13.096;2024-03-23T00:59:23;4.07;;;3.30;;
8663;SDS011;4369;47.842;13.096;2024-03-23T01:01:52;3.63;;;3.27;;
8663;SDS011;4369;47.842;13.096;2024-03-23T01:04:19;3.80;;;3.50;;
8663;SDS011;4369;47.842;13.096;2024-03-23T01:06:45;3.57;;;3.23;;
8663;SDS011;4369;47.842;13.096;2024-03-23T01:09:13;4.03;;;3.70;;
8663;SDS011;4369;47.842;13.096;2024-03-23T01:11:40;3.67;;;3.37;;
8663;SDS011;4369;47.842;13.096;2024-03-23T01:14:07;3.57;;;3.13;;
8663;SDS011;4369;47.842;13.096;2024-03-23T01:16:33;3.80;;;3.50;;
8663;SDS011;4369;47.842;13.096;2024-03-23T01:19:00;3.47;;;3.17;;
8663;SDS011;4369;47.842;13.096;2024-03-23T01:21:26;3.80;;;3.37;;
8663;SDS011;4369;47.842;13.096;2024-03-23T01:23:53;3.67;;;3.30;;
8663;SDS011;4369;47.842;13.096;2024-03-23T01:26:19;3.47;;;3.17;;
8663;SDS011;4369;47.842;13.096;2024-03-23T01:28:48;3.87;;;3.30;;
8663;SDS011;4369;47.842;13.096;2024-03-23T01:31:14;4.43;;;3.43;;
8663;SDS011;4369;47.842;13.096;2024-03-23T01:33:42;5.47;;;3.80;;
8663;SDS011;4369;47.842;13.096;2024-03-23T01:36:08;7.53;;;3.83;;
8663;SDS011;4369;47.842;13.096;2024-03-23T01:38:35;6.37;;;4.43;;
8663;SDS011;4369;47.842;13.096;2024-03-23T01:41:01;8.43;;;4.40;;
8663;SDS011;4369;47.842;13.096;2024-03-23T01:43:28;4.93;;;3.90;;
8663;SDS011;4369;47.842;13.096;2024-03-23T01:45:55;7.13;;;5.13;;
8663;SDS011;4369;47.842;13.096;2024-03-23T01:48:22;4.93;;;4.10;;
8663;SDS011;4369;47.842;13.096;2024-03-23T01:50:50;5.70;;;4.30;;
8663;SDS011;4369;47.842;13.096;2024-03-23T01:53:18;3.93;;;3.53;;
8663;SDS011;4369;47.842;13.096;2024-03-23T01:55:46;7.07;;;3.60;;
8663;SDS011;4369;47.842;13.096;2024-03-23T01:58:13;4.27;;;3.87;;
8663;SDS011;4369;47.842;13.096;2024-03-23T02:00:40;5.97;;;4.03;;
8663;SDS011;4369;47.842;13.096;2024-03-23T02:06:03;4.33;;;3.50;;
8663;SDS011;4369;47.842;13.096;2024-03-23T02:08:32;4.40;;;4.00;;
8663;SDS011;4369;47.842;13.096;2024-03-23T02:10:58;4.13;;;3.83;;
8663;SDS011;4369;47.842;13.096;2024-03-23T02:13:25;5.10;;;3.70;;
8663;SDS011;4369;47.842;13.096;2024-03-23T02:15:52;4.17;;;3.50;;
8663;SDS011;4369;47.842;13.096;2024-03-23T02:18:18;4.00;;;3.60;;
8663;SDS011;4369;47.842;13.096;2024-03-23T02:20:44;4.00;;;3.57;;
8663;SDS011;4369;47.842;13.096;2024-03-23T02:23:16;3.80;;;3.23;;
8663;SDS011;4369;47.842;13.096;2024-03-23T02:25:43;4.27;;;3.30;;
8663;SDS011;4369;47.842;13.096;2024-03-23T02:28:10;6.73;;;4.00;;
8663;SDS011;4369;47.842;13.096;2024-03-23T02:30:36;3.57;;;3.20;;
8663;SDS011;4369;47.842;13.096;2024-03-23T02:33:04;3.53;;;3.23;;
8663;SDS011;4369;47.842;13.096;2024-03-23T02:35:30;3.70;;;3.40;;
8663;SDS011;4369;47.842;13.096;2024-03-23T02:37:57;3.97;;;3.53;;
8663;SDS011;4369;47.842;13.096;2024-03-23T02:40:24;4.27;;;3.20;;
8663;SDS011;4369;47.842;13.096;2024-03-23T02:42:52;3.23;;;2.87;;
8663;SDS011;4369;47.842;13.096;2024-03-23T02:45:18;4.00;;;3.20;;
8663;SDS011;4369;47.842;13.096;2024-03-23T02:47:45;3.20;;;2.90;;
8663;SDS011;4369;47.842;13.096;2024-03-23T02:50:11;3.27;;;3.00;;
8663;SDS011;4369;47.842;13.096;2024-03-23T02:52:40;3.43;;;2.97;;
8663;SDS011;4369;47.842;13.096;2024-03-23T02:55:06;3.10;;;2.90;;
8663;SDS011;4369;47.842;13.096;2024-03-23T02:57:34;3.17;;;2.80;;
8663;SDS011;4369;47.842;13.096;2024-03-23T03:00:00;4.03;;;2.83;;
8663;SDS011;4369;47.842;13.096;2024-03-23T03:02:27;4.07;;;3.10;;
8663;SDS011;4369;47.842;13.096;2024-03-23T03:04:53;4.37;;;3.30;;
8663;SDS011;4369;47.842;13.096;2024-03-23T03:07:20;6.07;;;3.60;;
8663;SDS011;4369;47.842;13.096;2024-03-23T03:09:46;4.17;;;3.77;;
8663;SDS011;4369;47.842;13.096;2024-03-23T03:12:13;3.90;;;3.50;;
8663;SDS011;4369;47.842;13.096;2024-03-23T03:14:40;4.63;;;2.97;;
8663;SDS011;4369;47.842;13.096;2024-03-23T03:17:07;3.43;;;3.13;;
8663;SDS011;4369;47.842;13.096;2024-03-23T03:19:33;3.60;;;3.30;;
8663;SDS011;4369;47.842;13.096;2024-03-23T03:22:00;4.17;;;3.50;;
8663;SDS011;4369;47.842;13.096;2024-03-23T03:24:26;3.40;;;3.10;;
8663;SDS011;4369;47.842;13.096;2024-03-23T03:26:53;3.40;;;3.10;;
8663;SDS011;4369;47.842;13.096;2024-03-23T03:29:19;6.07;;;3.37;;
8663;SDS011;4369;47.842;13.096;2024-03-23T03:31:47;3.37;;;3.10;;
8663;SDS011;4369;47.842;13.096;2024-03-23T03:34:15;3.83;;;3.17;;
8663;SDS011;4369;47.842;13.096;2024-03-23T03:36:42;5.43;;;3.50;;
8663;SDS011;4369;47.842;13.096;2024-03-23T03:39:08;3.73;;;3.13;;
8663;SDS011;4369;47.842;13.096;2024-03-23T03:41:35;3.80;;;3.50;;
8663;SDS011;4369;47.842;13.096;2024-03-23T03:44:01;5.00;;;3.60;;
8663;SDS011;4369;47.842;13.096;2024-03-23T03:46:28;3.37;;;2.87;;
8663;SDS011;4369;47.842;13.096;2024-03-23T03:48:55;4.03;;;3.30;;
8663;SDS011;4369;47.842;13.096;2024-03-23T03:51:22;5.47;;;3.57;;
8663;SDS011;4369;47.842;13.096;2024-03-23T03:53:48;3.90;;;3.30;;
8663;SDS011;4369;47.842;13.096;2024-03-23T03:56:15;3.70;;;3.40;;
8663;SDS011;4369;47.842;13.096;2024-03-23T03:58:41;3.97;;;3.50;;
8663;SDS011;4369;47.842;13.096;2024-03-23T04:01:08;3.10;;;2.90;;
8663;SDS011;4369;47.842;13.096;2024-03-23T04:03:34;3.13;;;2.87;;
8663;SDS011;4369;47.842;13.096;2024-03-23T04:06:02;3.30;;;3.00;;
8663;SDS011;4369;47.842;13.096;2024-03-23T04:08:28;3.97;;;3.10;;
8663;SDS011;4369;47.842;13.096;2024-03-23T04:10:55;4.67;;;3.40;;
8663;SDS011;4369;47.842;13.096;2024-03-23T04:13:21;3.60;;;3.30;;
8663;SDS011;4369;47.842;13.096;2024-03-23T04:15:48;3.63;;;3.33;;
8663;SDS011;4369;47.842;13.096;2024-03-23T04:18:18;4.07;;;3.77;;
8663;SDS011;4369;47.842;13.096;2024-03-23T04:20:46;3.60;;;3.30;;
8663;SDS011;4369;47.842;13.096;2024-03-23T04:23:13;3.53;;;3.23;;
8663;SDS011;4369;47.842;13.096;2024-03-23T04:25:40;3.40;;;3.10;;
8663;SDS011;4369;47.842;13.096;2024-03-23T04:28:06;4.10;;;3.40;;
8663;SDS011;4369;47.842;13.096;2024-03-23T04:30:33;3.47;;;3.17;;
8663;SDS011;4369;47.842;13.096;2024-03-23T04:32:59;4.77;;;3.50;;
8663;SDS011;4369;47.842;13.096;2024-03-23T04:35:26;4.67;;;3.50;;
8663;SDS011;4369;47.842;13.096;2024-03-23T04:37:52;3.20;;;3.00;;
8663;SDS011;4369;47.842;13.096;2024-03-23T04:40:22;4.57;;;3.60;;
8663;SDS011;4369;47.842;13.096;2024-03-23T04:42:49;5.33;;;3.33;;
8663;SDS011;4369;47.842;13.096;2024-03-23T04:45:16;3.70;;;3.40;;
8663;SDS011;4369;47.842;13.096;2024-03-23T04:47:42;3.50;;;3.20;;
8663;SDS011;4369;47.842;13.096;2024-03-23T04:50:09;3.10;;;2.90;;
8663;SDS011;4369;47.842;13.096;2024-03-23T04:52:36;3.30;;;3.00;;
8663;SDS011;4369;47.842;13.096;2024-03-23T04:55:04;3.33;;;3.03;;
8663;SDS011;4369;47.842;13.096;2024-03-23T04:57:33;4.37;;;3.30;;
8663;SDS011;4369;47.842;13.096;2024-03-23T04:59:59;3.83;;;3.43;;
8663;SDS011;4369;47.842;13.096;2024-03-23T05:02:26;3.80;;;3.40;;
8663;SDS011;4369;47.842;13.096;2024-03-23T05:04:52;4.10;;;3.70;;
8663;SDS011;4369;47.842;13.096;2024-03-23T05:07:19;5.00;;;3.17;;
8663;SDS011;4369;47.842;13.096;2024-03-23T05:09:46;3.60;;;3.10;;
8663;SDS011;4369;47.842;13.096;2024-03-23T05:12:14;3.40;;;3.10;;
8663;SDS011;4369;47.842;13.096;2024-03-23T05:14:42;3.37;;;3.07;;
8663;SDS011;4369;47.842;13.096;2024-03-23T05:17:08;4.10;;;3.30;;
8663;SDS011;4369;47.842;13.096;2024-03-23T05:19:35;3.47;;;3.10;;
8663;SDS011;4369;47.842;13.096;2024-03-23T05:22:01;5.03;;;3.37;;
8663;SDS011;4369;47.842;13.096;2024-03-23T05:24:28;3.80;;;3.20;;
8663;SDS011;4369;47.842;13.096;2024-03-23T05:26:54;3.77;;;3.47;;
8663;SDS011;4369;47.842;13.096;2024-03-23T05:29:23;3.40;;;3.10;;
8663;SDS011;4369;47.842;13.096;2024-03-23T05:31:51;3.40;;;3.13;;
8663;SDS011;4369;47.842;13.096;2024-03-23T05:34:20;4.60;;;3.43;;
8663;SDS011;4369;47.842;13.096;2024-03-23T05:36:46;3.90;;;3.50;;
8663;SDS011;4369;47.842;13.096;2024-03-23T05:39:14;4.57;;;3.27;;
8663;SDS011;4369;47.842;13.096;2024-03-23T05:41:41;8.30;;;3.60;;
8663;SDS011;4369;47.842;13.096;2024-03-23T05:44:08;4.00;;;3.60;;
8663;SDS011;4369;47.842;13.096;2024-03-23T05:46:35;4.13;;;3.13;;
8663;SDS011;4369;47.842;13.096;2024-03-23T05:49:04;4.50;;;3.53;;
8663;SDS011;4369;47.842;13.096;2024-03-23T05:51:30;4.47;;;3.63;;
8663;SDS011;4369;47.842;13.096;2024-03-23T05:53:57;3.93;;;3.60;;
8663;SDS011;4369;47.842;13.096;2024-03-23T05:56:23;3.53;;;3.23;;
8663;SDS011;4369;47.842;13.096;2024-03-23T05:58:51;4.50;;;3.47;;
8663;SDS011;4369;47.842;13.096;2024-03-23T06:01:17;3.83;;;3.30;;
8663;SDS011;4369;47.842;13.096;2024-03-23T06:03:44;4.17;;;3.77;;
8663;SDS011;4369;47.842;13.096;2024-03-23T06:06:11;4.80;;;3.83;;
8663;SDS011;4369;47.842;13.096;2024-03-23T06:08:38;4.53;;;3.13;;
8663;SDS011;4369;47.842;13.096;2024-03-23T06:11:04;4.27;;;3.47;;
8663;SDS011;4369;47.842;13.096;2024-03-23T06:13:32;4.23;;;3.90;;
8663;SDS011;4369;47.842;13.096;2024-03-23T06:15:59;5.20;;;3.77;;
8663;SDS011;4369;47.842;13.096;2024-03-23T06:18:26;4.10;;;3.80;;
8663;SDS011;4369;47.842;13.096;2024-03-23T06:20:52;4.40;;;3.63;;
8663;SDS011;4369;47.842;13.096;2024-03-23T06:23:20;3.97;;;3.60;;
8663;SDS011;4369;47.842;13.096;2024-03-23T06:25:46;4.17;;;3.77;;
8663;SDS011;4369;47.842;13.096;2024-03-23T06:28:13;4.63;;;3.50;;
8663;SDS011;4369;47.842;13.096;2024-03-23T06:30:40;5.83;;;3.60;;
8663;SDS011;4369;47.842;13.096;2024-03-23T06:33:06;3.77;;;3.47;;
8663;SDS011;4369;47.842;13.096;2024-03-23T06:35:33;3.17;;;2.97;;
8663;SDS011;4369;47.842;13.096;2024-03-23T06:37:59;3.37;;;3.07;;
8663;SDS011;4369;47.842;13.096;2024-03-23T06:40:28;3.50;;;3.20;;
8663;SDS011;4369;47.842;13.096;2024-03-23T06:42:54;3.23;;;2.97;;
8663;SDS011;4369;47.842;13.096;2024-03-23T06:45:20;3.33;;;3.10;;
8663;SDS011;4369;47.842;13.096;2024-03-23T06:47:48;3.97;;;3.30;;
8663;SDS011;4369;47.842;13.096;2024-03-23T06:50:16;3.93;;;3.53;;
8663;SDS011;4369;47.842;13.096;2024-03-23T06:52:42;4.20;;;3.30;;
8663;SDS011;4369;47.842;13.096;2024-03-23T06:55:09;3.90;;;3.13;;
8663;SDS011;4369;47.842;13.096;2024-03-23T06:57:36;3.37;;;3.07;;
8663;SDS011;4369;47.842;13.096;2024-03-23T07:00:04;3.37;;;3.07;;
8663;SDS011;4369;47.842;13.096;2024-03-23T07:02:35;4.20;;;3.33;;
8663;SDS011;4369;47.842;13.096;2024-03-23T07:05:02;4.90;;;3.47;;
8663;SDS011;4369;47.842;13.096;2024-03-23T07:07:28;4.47;;;3.27;;
8663;SDS011;4369;47.842;13.096;2024-03-23T07:09:55;4.43;;;3.40;;
8663;SDS011;4369;47.842;13.096;2024-03-23T07:12:21;4.53;;;3.40;;
8663;SDS011;4369;47.842;13.096;2024-03-23T07:14:49;3.10;;;2.80;;
8663;SDS011;4369;47.842;13.096;2024-03-23T07:17:15;3.10;;;2.80;;
8663;SDS011;4369;47.842;13.096;2024-03-23T07:19:43;2.87;;;2.57;;
8663;SDS011;4369;47.842;13.096;2024-03-23T07:22:09;4.07;;;2.60;;
8663;SDS011;4369;47.842;13.096;2024-03-23T07:24:36;3.53;;;2.90;;
8663;SDS011;4369;47.842;13.096;2024-03-23T07:27:04;2.70;;;2.50;;
8663;SDS011;4369;47.842;13.096;2024-03-23T07:29:35;3.70;;;2.80;;
8663;SDS011;4369;47.842;13.096;2024-03-23T07:32:02;6.07;;;3.03;;
8663;SDS011;4369;47.842;13.096;2024-03-23T07:34:30;3.23;;;2.70;;
8663;SDS011;4369;47.842;13.096;2024-03-23T07:36:56;2.80;;;2.60;;
8663;SDS011;4369;47.842;13.096;2024-03-23T07:39:23;3.00;;;2.73;;
8663;SDS011;4369;47.842;13.096;2024-03-23T07:41:49;5.03;;;2.73;;
8663;SDS011;4369;47.842;13.096;2024-03-23T07:44:17;2.77;;;2.47;;
8663;SDS011;4369;47.842;13.096;2024-03-23T07:46:42;4.97;;;2.43;;
8663;SDS011;4369;47.842;13.096;2024-03-23T07:49:11;2.67;;;2.47;;
8663;SDS011;4369;47.842;13.096;2024-03-23T07:51:37;3.80;;;2.40;;
8663;SDS011;4369;47.842;13.096;2024-03-23T07:54:04;3.63;;;2.70;;
8663;SDS011;4369;47.842;13.096;2024-03-23T07:56:30;2.30;;;2.20;;
8663;SDS011;4369;47.842;13.096;2024-03-23T07:58:58;2.53;;;2.13;;
8663;SDS011;4369;47.842;13.096;2024-03-23T08:01:24;2.30;;;2.10;;
8663;SDS011;4369;47.842;13.096;2024-03-23T08:03:51;2.20;;;2.10;;
8663;SDS011;4369;47.842;13.096;2024-03-23T08:06:18;3.30;;;2.13;;
8663;SDS011;4369;47.842;13.096;2024-03-23T08:08:47;2.93;;;2.30;;
8663;SDS011;4369;47.842;13.096;2024-03-23T08:11:15;2.73;;;2.23;;
8663;SDS011;4369;47.842;13.096;2024-03-23T08:16:08;4.17;;;2.50;;
8663;SDS011;4369;47.842;13.096;2024-03-23T08:18:35;2.53;;;2.23;;
8663;SDS011;4369;47.842;13.096;2024-03-23T08:21:02;2.33;;;2.13;;
8663;SDS011;4369;47.842;13.096;2024-03-23T08:23:33;4.10;;;2.23;;
8663;SDS011;4369;47.842;13.096;2024-03-23T08:26:09;2.27;;;2.17;;
8663;SDS011;4369;47.842;13.096;2024-03-23T08:28:37;2.43;;;2.13;;
8663;SDS011;4369;47.842;13.096;2024-03-23T08:31:04;2.20;;;1.90;;
8663;SDS011;4369;47.842;13.096;2024-03-23T08:33:32;2.17;;;1.97;;
8663;SDS011;4369;47.842;13.096;2024-03-23T08:35:59;4.20;;;2.37;;
8663;SDS011;4369;47.842;13.096;2024-03-23T08:38:27;4.27;;;2.40;;
8663;SDS011;4369;47.842;13.096;2024-03-23T08:40:58;3.50;;;2.13;;
8663;SDS011;4369;47.842;13.096;2024-03-23T08:43:28;2.17;;;1.90;;
8663;SDS011;4369;47.842;13.096;2024-03-23T08:46:03;4.33;;;2.10;;
8663;SDS011;4369;47.842;13.096;2024-03-23T08:48:31;2.43;;;2.23;;
8663;SDS011;4369;47.842;13.096;2024-03-23T08:51:00;4.43;;;2.27;;
8663;SDS011;4369;47.842;13.096;2024-03-23T08:53:28;2.83;;;2.10;;
8663;SDS011;4369;47.842;13.096;2024-03-23T08:55:55;2.70;;;2.27;;
8663;SDS011;4369;47.842;13.096;2024-03-23T08:58:24;2.43;;;2.10;;
8663;SDS011;4369;47.842;13.096;2024-03-23T09:00:51;3.57;;;2.20;;
8663;SDS011;4369;47.842;13.096;2024-03-23T09:03:20;2.53;;;2.23;;
8663;SDS011;4369;47.842;13.096;2024-03-23T09:05:46;1.97;;;1.87;;
8663;SDS011;4369;47.842;13.096;2024-03-23T09:08:13;2.27;;;2.07;;
8663;SDS011;4369;47.842;13.096;2024-03-23T09:10:40;2.23;;;1.90;;
8663;SDS011;4369;47.842;13.096;2024-03-23T09:13:07;3.47;;;1.80;;
8663;SDS011;4369;47.842;13.096;2024-03-23T09:15:36;4.20;;;2.10;;
8663;SDS011;4369;47.842;13.096;2024-03-23T09:18:04;3.60;;;1.90;;
8663;SDS011;4369;47.842;13.096;2024-03-23T09:20:32;2.70;;;1.80;;
8663;SDS011;4369;47.842;13.096;2024-03-23T09:22:59;2.10;;;1.73;;
8663;SDS011;4369;47.842;13.096;2024-03-23T09:25:25;2.87;;;1.90;;
8663;SDS011;4369;47.842;13.096;2024-03-23T09:27:52;1.90;;;1.60;;
8663;SDS011;4369;47.842;13.096;2024-03-23T09:30:18;2.83;;;2.00;;
8663;SDS011;4369;47.842;13.096;2024-03-23T09:32:47;2.67;;;1.83;;
8663;SDS011;4369;47.842;13.096;2024-03-23T09:35:13;2.80;;;1.87;;
8663;SDS011;4369;47.842;13.096;2024-03-23T09:37:40;3.67;;;2.23;;
8663;SDS011;4369;47.842;13.096;2024-03-23T09:40:08;3.73;;;2.30;;
8663;SDS011;4369;47.842;13.096;2024-03-23T09:42:36;3.00;;;2.30;;
8663;SDS011;4369;47.842;13.096;2024-03-23T09:45:02;2.70;;;2.40;;
8663;SDS011;4369;47.842;13.096;2024-03-23T09:47:32;2.27;;;2.10;;
8663;SDS011;4369;47.842;13.096;2024-03-23T09:50:00;2.67;;;2.00;;
8663;SDS011;4369;47.842;13.096;2024-03-23T09:52:31;2.43;;;1.53;;
8663;SDS011;4369;47.842;13.096;2024-03-23T09:54:57;2.17;;;1.17;;
8663;SDS011;4369;47.842;13.096;2024-03-23T09:57:24;3.13;;;1.30;;
8663;SDS011;4369;47.842;13.096;2024-03-23T09:59:51;1.70;;;0.90;;
8663;SDS011;4369;47.842;13.096;2024-03-23T10:02:19;1.33;;;0.90;;
8663;SDS011;4369;47.842;13.096;2024-03-23T10:04:46;1.40;;;0.97;;
8663;SDS011;4369;47.842;13.096;2024-03-23T10:07:15;1.00;;;1.00;;
8663;SDS011;4369;47.842;13.096;2024-03-23T10:09:43;0.90;;;0.90;;
8663;SDS011;4369;47.842;13.096;2024-03-23T10:12:12;3.60;;;1.23;;
8663;SDS011;4369;47.842;13.096;2024-03-23T10:14:41;1.53;;;1.43;;
8663;SDS011;4369;47.842;13.096;2024-03-23T10:17:12;1.60;;;1.50;;
8663;SDS011;4369;47.842;13.096;2024-03-23T10:19:39;3.80;;;1.70;;
8663;SDS011;4369;47.842;13.096;2024-03-23T10:22:07;2.53;;;1.60;;
8663;SDS011;4369;47.842;13.096;2024-03-23T10:24:35;2.40;;;1.63;;
8663;SDS011;4369;47.842;13.096;2024-03-23T10:27:02;1.87;;;1.50;;
8663;SDS011;4369;47.842;13.096;2024-03-23T10:29:28;2.03;;;1.83;;
8663;SDS011;4369;47.842;13.096;2024-03-23T10:32:07;2.53;;;1.73;;
8663;SDS011;4369;47.842;13.096;2024-03-23T10:34:33;1.90;;;1.70;;
8663;SDS011;4369;47.842;13.096;2024-03-23T10:37:02;2.03;;;1.90;;
8663;SDS011;4369;47.842;13.096;2024-03-23T10:39:30;2.40;;;2.23;;
8663;SDS011;4369;47.842;13.096;2024-03-23T10:42:01;1.97;;;1.87;;
8663;SDS011;4369;47.842;13.096;2024-03-23T10:44:28;2.00;;;1.90;;
8663;SDS011;4369;47.842;13.096;2024-03-23T10:46:56;2.60;;;2.40;;
8663;SDS011;4369;47.842;13.096;2024-03-23T10:49:25;2.30;;;2.20;;
8663;SDS011;4369;47.842;13.096;2024-03-23T10:51:54;2.97;;;2.00;;
8663;SDS011;4369;47.842;13.096;2024-03-23T10:54:24;3.90;;;3.30;;
8663;SDS011;4369;47.842;13.096;2024-03-23T10:56:52;3.63;;;2.17;;
8663;SDS011;4369;47.842;13.096;2024-03-23T10:59:28;3.00;;;2.00;;
8663;SDS011;4369;47.842;13.096;2024-03-23T11:01:57;2.50;;;2.30;;
8663;SDS011;4369;47.842;13.096;2024-03-23T11:04:30;3.60;;;2.10;;
8663;SDS011;4369;47.842;13.096;2024-03-23T11:06:58;3.35;;;2.90;;
8663;SDS011;4369;47.842;13.096;2024-03-23T11:09:43;2.57;;;2.37;;
8663;SDS011;4369;47.842;13.096;2024-03-23T11:12:17;2.60;;;2.20;;
8663;SDS011;4369;47.842;13.096;2024-03-23T11:14:53;2.50;;;2.30;;
8663;SDS011;4369;47.842;13.096;2024-03-23T11:17:24;2.50;;;2.27;;
8663;SDS011;4369;47.842;13.096;2024-03-23T11:19:54;2.23;;;1.90;;
8663;SDS011;4369;47.842;13.096;2024-03-23T11:22:39;1.97;;;1.87;;
8663;SDS011;4369;47.842;13.096;2024-03-23T11:25:13;3.00;;;1.97;;
8663;SDS011;4369;47.842;13.096;2024-03-23T11:27:41;1.60;;;1.50;;
8663;SDS011;4369;47.842;13.096;2024-03-23T11:30:15;1.60;;;1.50;;
8663;SDS011;4369;47.842;13.096;2024-03-23T11:32:44;1.50;;;1.40;;
8663;SDS011;4369;47.842;13.096;2024-03-23T11:35:24;1.33;;;1.23;;
8663;SDS011;4369;47.842;13.096;2024-03-23T11:38:08;1.37;;;1.27;;
8663;SDS011;4369;47.842;13.096;2024-03-23T11:40:35;1.48;;;1.38;;
8663;SDS011;4369;47.842;13.096;2024-03-23T11:43:03;1.30;;;1.20;;
8663;SDS011;4369;47.842;13.096;2024-03-23T11:45:35;1.20;;;1.20;;
8663;SDS011;4369;47.842;13.096;2024-03-23T11:48:06;1.00;;;1.00;;
8663;SDS011;4369;47.842;13.096;2024-03-23T11:50:33;1.00;;;1.00;;
8663;SDS011;4369;47.842;13.096;2024-03-23T11:53:08;1.63;;;1.10;;
8663;SDS011;4369;47.842;13.096;2024-03-23T11:55:47;1.50;;;1.20;;
8663;SDS011;4369;47.842;13.096;2024-03-23T11:58:15;1.30;;;1.20;;
8663;SDS011;4369;47.842;13.096;2024-03-23T12:00:48;1.40;;;1.30;;
8663;SDS011;4369;47.842;13.096;2024-03-23T12:03:17;2.47;;;0.83;;
8663;SDS011;4369;47.842;13.096;2024-03-23T12:05:47;3.33;;;1.37;;
8663;SDS011;4369;47.842;13.096;2024-03-23T12:08:16;1.97;;;1.07;;
8663;SDS011;4369;47.842;13.096;2024-03-23T12:10:47;2.77;;;1.20;;
8663;SDS011;4369;47.842;13.096;2024-03-23T12:13:16;2.10;;;1.17;;
8663;SDS011;4369;47.842;13.096;2024-03-23T12:15:44;1.03;;;0.93;;
8663;SDS011;4369;47.842;13.096;2024-03-23T12:18:12;0.90;;;0.90;;
8663;SDS011;4369;47.842;13.096;2024-03-23T12:20:39;1.13;;;0.90;;
8663;SDS011;4369;47.842;13.096;2024-03-23T12:23:09;0.87;;;0.83;;
8663;SDS011;4369;47.842;13.096;2024-03-23T12:25:36;1.70;;;1.00;;
8663;SDS011;4369;47.842;13.096;2024-03-23T12:28:04;2.33;;;0.80;;
8663;SDS011;4369;47.842;13.096;2024-03-23T12:30:31;3.70;;;1.00;;
8663;SDS011;4369;47.842;13.096;2024-03-23T12:33:04;0.90;;;0.90;;
8663;SDS011;4369;47.842;13.096;2024-03-23T12:35:30;3.03;;;0.70;;
8663;SDS011;4369;47.842;13.096;2024-03-23T12:37:58;0.80;;;0.80;;
8663;SDS011;4369;47.842;13.096;2024-03-23T12:40:24;1.17;;;0.80;;
8663;SDS011;4369;47.842;13.096;2024-03-23T12:42:51;0.80;;;0.80;;
8663;SDS011;4369;47.842;13.096;2024-03-23T12:45:18;1.30;;;1.20;;
8663;SDS011;4369;47.842;13.096;2024-03-23T12:47:44;1.13;;;1.03;;
8663;SDS011;4369;47.842;13.096;2024-03-23T12:50:12;0.90;;;0.90;;
8663;SDS011;4369;47.842;13.096;2024-03-23T12:52:39;1.10;;;0.90;;
8663;SDS011;4369;47.842;13.096;2024-03-23T12:55:05;1.20;;;0.90;;
8663;SDS011;4369;47.842;13.096;2024-03-23T12:57:32;1.10;;;1.00;;
8663;SDS011;4369;47.842;13.096;2024-03-23T12:59:58;1.10;;;0.80;;
8663;SDS011;4369;47.842;13.096;2024-03-23T13:02:25;0.90;;;0.90;;
8663;SDS011;4369;47.842;13.096;2024-03-23T13:04:52;1.20;;;1.10;;
8663;SDS011;4369;47.842;13.096;2024-03-23T13:07:21;0.90;;;0.90;;
8663;SDS011;4369;47.842;13.096;2024-03-23T13:09:49;1.13;;;0.90;;
8663;SDS011;4369;47.842;13.096;2024-03-23T13:12:17;1.33;;;1.00;;
8663;SDS011;4369;47.842;13.096;2024-03-23T13:14:43;2.97;;;1.00;;
8663;SDS011;4369;47.842;13.096;2024-03-23T13:17:11;2.73;;;1.07;;
8663;SDS011;4369;47.842;13.096;2024-03-23T13:19:37;1.80;;;1.70;;
8663;SDS011;4369;47.842;13.096;2024-03-23T13:22:04;2.57;;;2.10;;
8663;SDS011;4369;47.842;13.096;2024-03-23T13:24:31;4.07;;;2.20;;
8663;SDS011;4369;47.842;13.096;2024-03-23T13:26:59;1.90;;;1.47;;
8663;SDS011;4369;47.842;13.096;2024-03-23T13:29:25;2.60;;;1.67;;
8663;SDS011;4369;47.842;13.096;2024-03-23T13:31:52;2.33;;;1.73;;
8663;SDS011;4369;47.842;13.096;2024-03-23T13:34:18;4.20;;;1.70;;
8663;SDS011;4369;47.842;13.096;2024-03-23T13:36:45;2.58;;;1.80;;
8663;SDS011;4369;47.842;13.096;2024-03-23T13:39:12;1.10;;;1.10;;
8663;SDS011;4369;47.842;13.096;2024-03-23T13:41:43;4.63;;;1.70;;
8663;SDS011;4369;47.842;13.096;2024-03-23T13:44:10;1.60;;;1.50;;
8663;SDS011;4369;47.842;13.096;2024-03-23T13:46:38;1.60;;;1.50;;
8663;SDS011;4369;47.842;13.096;2024-03-23T13:49:04;2.00;;;1.10;;
8663;SDS011;4369;47.842;13.096;2024-03-23T13:51:31;1.93;;;1.73;;
8663;SDS011;4369;47.842;13.096;2024-03-23T13:53:58;1.83;;;1.43;;
8663;SDS011;4369;47.842;13.096;2024-03-23T13:56:26;1.83;;;1.60;;
8663;SDS011;4369;47.842;13.096;2024-03-23T13:58:55;2.77;;;1.33;;
8663;SDS011;4369;47.842;13.096;2024-03-23T14:01:23;3.40;;;1.63;;
8663;SDS011;4369;47.842;13.096;2024-03-23T14:03:49;2.07;;;1.20;;
8663;SDS011;4369;47.842;13.096;2024-03-23T14:06:16;1.80;;;1.30;;
8663;SDS011;4369;47.842;13.096;2024-03-23T14:08:42;2.40;;;1.57;;
8663;SDS011;4369;47.842;13.096;2024-03-23T14:11:09;1.17;;;1.17;;
8663;SDS011;4369;47.842;13.096;2024-03-23T14:13:35;2.63;;;1.40;;
8663;SDS011;4369;47.842;13.096;2024-03-23T14:16:04;2.33;;;1.63;;
8663;SDS011;4369;47.842;13.096;2024-03-23T14:18:30;4.30;;;1.60;;
8663;SDS011;4369;47.842;13.096;2024-03-23T14:20:58;1.53;;;1.43;;
8663;SDS011;4369;47.842;13.096;2024-03-23T14:23:25;1.40;;;1.30;;
8663;SDS011;4369;47.842;13.096;2024-03-23T14:25:52;1.27;;;1.17;;
8663;SDS011;4369;47.842;13.096;2024-03-23T14:28:19;2.93;;;1.40;;
8663;SDS011;4369;47.842;13.096;2024-03-23T14:30:47;2.33;;;1.30;;
8663;SDS011;4369;47.842;13.096;2024-03-23T14:33:16;1.67;;;1.13;;
8663;SDS011;4369;47.842;13.096;2024-03-23T14:35:43;1.53;;;1.00;;
8663;SDS011;4369;47.842;13.096;2024-03-23T14:38:16;1.10;;;1.00;;
8663;SDS011;4369;47.842;13.096;2024-03-23T14:40:43;1.50;;;1.20;;
8663;SDS011;4369;47.842;13.096;2024-03-23T14:43:09;2.13;;;1.00;;
8663;SDS011;4369;47.842;13.096;2024-03-23T14:45:36;1.30;;;1.20;;
8663;SDS011;4369;47.842;13.096;2024-03-23T14:48:02;1.10;;;1.10;;
8663;SDS011;4369;47.842;13.096;2024-03-23T14:50:31;1.40;;;1.30;;
8663;SDS011;4369;47.842;13.096;2024-03-23T14:52:59;1.63;;;1.37;;
8663;SDS011;4369;47.842;13.096;2024-03-23T14:55:26;1.90;;;1.53;;
8663;SDS011;4369;47.842;13.096;2024-03-23T14:57:53;5.73;;;1.63;;
8663;SDS011;4369;47.842;13.096;2024-03-23T15:00:20;2.60;;;1.80;;
8663;SDS011;4369;47.842;13.096;2024-03-23T15:02:47;2.07;;;1.60;;
8663;SDS011;4369;47.842;13.096;2024-03-23T15:05:14;2.00;;;1.53;;
8663;SDS011;4369;47.842;13.096;2024-03-23T15:07:41;1.97;;;1.77;;
8663;SDS011;4369;47.842;13.096;2024-03-23T15:10:08;3.23;;;1.70;;
8663;SDS011;4369;47.842;13.096;2024-03-23T15:12:35;3.23;;;1.53;;
8663;SDS011;4369;47.842;13.096;2024-03-23T15:15:02;2.97;;;1.40;;
8663;SDS011;4369;47.842;13.096;2024-03-23T15:17:28;1.53;;;1.40;;
8663;SDS011;4369;47.842;13.096;2024-03-23T15:19:59;1.30;;;1.20;;
8663;SDS011;4369;47.842;13.096;2024-03-23T15:22:25;1.70;;;1.10;;
8663;SDS011;4369;47.842;13.096;2024-03-23T15:24:54;2.63;;;1.40;;
8663;SDS011;4369;47.842;13.096;2024-03-23T15:27:20;2.80;;;1.23;;
8663;SDS011;4369;47.842;13.096;2024-03-23T15:29:46;2.33;;;1.20;;
8663;SDS011;4369;47.842;13.096;2024-03-23T15:32:12;1.50;;;1.40;;
8663;SDS011;4369;47.842;13.096;2024-03-23T15:34:42;1.90;;;1.20;;
8663;SDS011;4369;47.842;13.096;2024-03-23T15:37:08;2.27;;;1.30;;
8663;SDS011;4369;47.842;13.096;2024-03-23T15:39:35;2.17;;;1.30;;
8663;SDS011;4369;47.842;13.096;2024-03-23T15:42:02;2.43;;;1.80;;
8663;SDS011;4369;47.842;13.096;2024-03-23T15:44:30;2.10;;;1.20;;
8663;SDS011;4369;47.842;13.096;2024-03-23T15:46:56;1.83;;;1.40;;
8663;SDS011;4369;47.842;13.096;2024-03-23T15:49:23;2.53;;;1.33;;
8663;SDS011;4369;47.842;13.096;2024-03-23T15:51:49;1.57;;;1.47;;
8663;SDS011;4369;47.842;13.096;2024-03-23T15:54:16;1.30;;;1.20;;
8663;SDS011;4369;47.842;13.096;2024-03-23T15:56:43;3.37;;;1.20;;
8663;SDS011;4369;47.842;13.096;2024-03-23T15:59:11;1.93;;;1.60;;
8663;SDS011;4369;47.842;13.096;2024-03-23T16:01:37;1.70;;;1.60;;